LROP/OTP METAR and TAF weather

Enter ICAO airport designator
Station Type Date Time Source
LROP METAR 2019/12/09 22:00 UTC NOAA

LROP 092200Z VRB02KT 5000 BR NSC M00/M00 Q1012 NOSIG


Station Type Date Time Source
LROP Decoded METAR 2019/12/09 22:00 UTC NOAA

Bucuresti Otopeni, Romania (LROP) 44-33N 026-06E 95M
Dec 09, 2019 - 05:00 PM EST / 2019.12.09 2200 UTC
Wind: Variable at 2 MPH (2 KT):0
Visibility: 3 mile(s):0
Weather: mist
Temperature: 32 F (0 C)
Dew Point: 32 F (0 C)
Relative Humidity: 100%
Pressure (altimeter): 29.88 in. Hg (1012 hPa)
ob: LROP 092200Z VRB02KT 5000 BR NSC M00/M00 Q1012 NOSIG
cycle: 22

Station Type Date Time Source
LROP TAF 2019/12/09 18:33 UTC NOAA

TAF LROP 091700Z 0918/1018 VRB04KT CAVOK
BECMG 0919/0921 3000 BR
BECMG 0921/0923 0800 FG BKN002
TEMPO 0923/1005 0350 FZFG OVC001
BECMG 1006/1008 3000 BR SCT010
BECMG 1008/1010 CAVOK

Example: see airport list